Time;durP1;ratioP1;P1;durP2;ratioP2;P2;SDS_P1;SDS_P2;PMS_P1;PMS_P2;Temp;Humidity;BMP_temperature;BMP_pressure;BME280_temperature;BME280_humidity;BME280_pressure;Samples;Min_cycle;Max_cycle;Signal;HPM_P1;HPM_P2
2023/09/16 00:00:33;;;;;;;11.93;8.15;;;;;;;;;;5014271;27;98630;-61
2023/09/16 00:03:00;;;;;;;9.88;6.50;;;;;;;;;;5015033;27;100165;-60
2023/09/16 00:05:27;;;;;;;12.63;8.43;;;;;;;;;;5010703;27;99532;-61
2023/09/16 00:07:53;;;;;;;8.15;7.35;;;;;;;;;;5014829;27;99908;-60
2023/09/16 00:10:19;;;;;;;11.70;9.35;;;;;;;;;;5015302;27;99611;-61
2023/09/16 00:12:46;;;;;;;9.00;7.60;;;;;;;;;;5011252;27;98680;-60
2023/09/16 00:15:12;;;;;;;9.50;7.40;;;;;;;;;;5009540;27;99141;-61
2023/09/16 00:17:39;;;;;;;13.77;7.28;;;;;;;;;;5012275;27;99510;-60
2023/09/16 00:20:15;;;;;;;8.88;8.05;;;;;;;;;;5011451;27;98555;-61
2023/09/16 00:22:42;;;;;;;16.10;7.53;;;;;;;;;;5016053;27;99128;-61
2023/09/16 00:25:09;;;;;;;8.82;5.47;;;;;;;;;;5013574;27;99443;-61
2023/09/16 00:27:35;;;;;;;9.85;6.80;;;;;;;;;;5015133;27;99139;-61
2023/09/16 00:30:03;;;;;;;11.15;5.95;;;;;;;;;;5025759;27;100401;-61
2023/09/16 00:32:29;;;;;;;8.85;5.40;;;;;;;;;;5015562;27;98613;-61
2023/09/16 00:34:56;;;;;;;10.30;6.28;;;;;;;;;;5011120;27;99090;-61
2023/09/16 00:37:22;;;;;;;7.75;6.85;;;;;;;;;;5010802;27;100484;-61
2023/09/16 00:39:48;;;;;;;9.55;6.65;;;;;;;;;;5010781;27;98651;-61
2023/09/16 00:42:15;;;;;;;6.97;6.03;;;;;;;;;;5014077;27;99059;-61
2023/09/16 00:44:42;;;;;;;6.63;5.68;;;;;;;;;;5014167;27;99532;-61
2023/09/16 00:47:09;;;;;;;11.73;6.22;;;;;;;;;;5016351;27;98047;-61
2023/09/16 00:49:35;;;;;;;11.38;7.05;;;;;;;;;;5010443;27;100503;-61
2023/09/16 00:52:02;;;;;;;8.57;6.78;;;;;;;;;;5011884;27;98637;-62
2023/09/16 00:54:29;;;;;;;8.18;6.55;;;;;;;;;;5010259;27;100224;-60
2023/09/16 00:56:56;;;;;;;8.60;6.63;;;;;;;;;;5013824;27;99455;-62
2023/09/16 00:59:25;;;;;;;15.82;7.40;;;;;;;;;;5010992;27;98962;-61
2023/09/16 01:01:52;;;;;;;10.32;7.25;;;;;;;;;;5009768;27;100275;-61
2023/09/16 01:04:19;;;;;;;9.10;6.95;;;;;;;;;;5014442;27;100805;-61
2023/09/16 01:06:50;;;;;;;8.40;6.78;;;;;;;;;;5013360;27;98534;-60
2023/09/16 01:09:20;;;;;;;9.52;7.22;;;;;;;;;;5011048;27;99403;-61
2023/09/16 01:11:47;;;;;;;8.47;7.47;;;;;;;;;;5017289;27;100968;-61
2023/09/16 01:14:13;;;;;;;9.85;7.68;;;;;;;;;;5009912;27;98842;-61
2023/09/16 01:16:46;;;;;;;9.50;6.68;;;;;;;;;;5011195;27;99520;-62
2023/09/16 01:19:31;;;;;;;9.30;6.60;;;;;;;;;;5010141;27;99484;-61
2023/09/16 01:21:58;;;;;;;11.35;6.55;;;;;;;;;;5010463;27;99978;-61
2023/09/16 01:24:24;;;;;;;7.50;6.78;;;;;;;;;;5009154;27;99509;-61
2023/09/16 01:26:51;;;;;;;7.78;6.68;;;;;;;;;;5017235;27;98701;-61
2023/09/16 01:29:19;;;;;;;11.40;6.47;;;;;;;;;;5012203;27;101969;-61
2023/09/16 01:31:45;;;;;;;11.90;6.47;;;;;;;;;;5009468;27;98459;-61
2023/09/16 01:34:17;;;;;;;10.30;6.55;;;;;;;;;;5009543;27;98967;-61
2023/09/16 01:36:44;;;;;;;8.77;6.25;;;;;;;;;;5010230;27;98668;-61
2023/09/16 01:39:11;;;;;;;7.88;6.22;;;;;;;;;;5009887;27;98455;-61
2023/09/16 01:41:39;;;;;;;9.68;6.35;;;;;;;;;;5014319;27;101856;-61
2023/09/16 01:44:06;;;;;;;6.80;5.95;;;;;;;;;;5008369;27;100211;-61
2023/09/16 01:46:32;;;;;;;11.60;7.25;;;;;;;;;;5011302;27;99368;-60
2023/09/16 01:48:58;;;;;;;9.10;5.53;;;;;;;;;;5014637;27;100058;-61
2023/09/16 01:51:25;;;;;;;8.23;6.13;;;;;;;;;;5018004;27;100621;-62
2023/09/16 01:53:51;;;;;;;10.55;6.25;;;;;;;;;;5013704;27;99060;-61
2023/09/16 01:56:18;;;;;;;13.75;6.18;;;;;;;;;;5012798;27;98970;-61
2023/09/16 01:58:44;;;;;;;7.13;6.43;;;;;;;;;;5014479;27;98492;-61
2023/09/16 02:01:11;;;;;;;10.27;5.47;;;;;;;;;;5010343;27;100632;-61
2023/09/16 02:03:37;;;;;;;6.85;6.10;;;;;;;;;;5013510;27;100561;-62
2023/09/16 02:06:07;;;;;;;9.23;5.93;;;;;;;;;;5008877;27;100475;-62
2023/09/16 02:08:34;;;;;;;7.45;6.60;;;;;;;;;;5008508;27;99470;-61
2023/09/16 02:11:00;;;;;;;6.38;5.78;;;;;;;;;;5013224;27;99549;-65
2023/09/16 02:13:26;;;;;;;10.75;5.50;;;;;;;;;;5012066;27;98517;-61
2023/09/16 02:15:53;;;;;;;6.88;6.15;;;;;;;;;;5008394;27;99453;-61
2023/09/16 02:18:19;;;;;;;6.68;5.78;;;;;;;;;;5011600;27;98553;-60
2023/09/16 02:20:46;;;;;;;6.85;6.15;;;;;;;;;;5009212;27;101379;-61
2023/09/16 02:23:13;;;;;;;7.82;6.32;;;;;;;;;;5008885;27;99346;-62
2023/09/16 02:25:40;;;;;;;8.93;5.93;;;;;;;;;;5009092;27;97926;-61
2023/09/16 02:28:06;;;;;;;8.82;5.90;;;;;;;;;;5009409;27;98433;-61
2023/09/16 02:30:32;;;;;;;6.97;4.82;;;;;;;;;;5008576;27;100664;-61
2023/09/16 02:32:59;;;;;;;6.88;5.50;;;;;;;;;;5011881;27;99240;-61
2023/09/16 02:35:25;;;;;;;5.90;5.38;;;;;;;;;;5011328;27;99909;-61
2023/09/16 02:37:52;;;;;;;16.42;5.50;;;;;;;;;;5013362;27;98590;-61
2023/09/16 02:40:18;;;;;;;5.82;5.25;;;;;;;;;;5008989;27;99140;-61
2023/09/16 02:42:45;;;;;;;9.90;6.38;;;;;;;;;;5008669;27;100500;-61
2023/09/16 02:45:11;;;;;;;7.30;5.72;;;;;;;;;;5008769;27;98492;-61
2023/09/16 02:47:39;;;;;;;7.18;6.20;;;;;;;;;;5012520;27;98801;-61
2023/09/16 02:50:07;;;;;;;9.38;5.72;;;;;;;;;;5008273;27;98707;-61
2023/09/16 02:52:33;;;;;;;10.38;5.35;;;;;;;;;;5010632;27;99442;-61
2023/09/16 02:54:59;;;;;;;8.57;5.03;;;;;;;;;;5015630;27;99264;-61
2023/09/16 02:57:26;;;;;;;9.23;6.40;;;;;;;;;;5011885;27;99400;-61
2023/09/16 02:59:52;;;;;;;5.63;5.00;;;;;;;;;;5009275;27;100872;-61
2023/09/16 03:02:19;;;;;;;7.10;5.40;;;;;;;;;;5012563;27;100772;-61
2023/09/16 03:04:45;;;;;;;8.50;5.78;;;;;;;;;;5008654;27;98515;-60
2023/09/16 03:07:11;;;;;;;7.43;5.78;;;;;;;;;;5008262;27;100159;-61
2023/09/16 03:09:38;;;;;;;9.68;5.70;;;;;;;;;;5008192;27;99822;-61
2023/09/16 03:12:04;;;;;;;8.55;5.97;;;;;;;;;;5008506;27;98463;-61
2023/09/16 03:14:31;;;;;;;6.47;5.65;;;;;;;;;;5009200;27;98912;-61
2023/09/16 03:16:57;;;;;;;9.23;5.57;;;;;;;;;;5017791;27;100010;-61
2023/09/16 03:19:24;;;;;;;8.27;5.65;;;;;;;;;;5009038;27;99224;-61
2023/09/16 03:21:51;;;;;;;6.45;5.57;;;;;;;;;;5011513;27;101750;-61
2023/09/16 03:24:17;;;;;;;9.77;6.18;;;;;;;;;;5010484;27;98464;-61
2023/09/16 03:26:43;;;;;;;6.85;5.50;;;;;;;;;;5012348;27;99276;-61
2023/09/16 03:29:11;;;;;;;9.05;5.53;;;;;;;;;;5011548;27;99401;-61
2023/09/16 03:31:38;;;;;;;9.82;5.88;;;;;;;;;;5019500;27;98520;-61
2023/09/16 03:34:04;;;;;;;6.65;5.68;;;;;;;;;;5011880;27;99501;-61
2023/09/16 03:36:31;;;;;;;7.38;4.90;;;;;;;;;;5011491;27;99928;-61
2023/09/16 03:38:57;;;;;;;10.20;5.18;;;;;;;;;;5014882;27;98881;-61
2023/09/16 03:41:24;;;;;;;7.40;5.10;;;;;;;;;;5019106;27;99489;-61
2023/09/16 03:43:50;;;;;;;7.88;5.50;;;;;;;;;;5012236;27;98558;-59
2023/09/16 03:46:16;;;;;;;8.73;5.03;;;;;;;;;;5017719;27;100478;-61
2023/09/16 03:48:43;;;;;;;7.95;5.25;;;;;;;;;;5011108;27;99533;-60
2023/09/16 03:51:09;;;;;;;7.15;5.57;;;;;;;;;;5026202;27;102286;-61
2023/09/16 03:53:36;;;;;;;6.72;5.00;;;;;;;;;;5015643;27;99110;-60
2023/09/16 03:56:21;;;;;;;5.63;5.07;;;;;;;;;;5011466;27;100557;-61
2023/09/16 03:58:47;;;;;;;7.97;5.47;;;;;;;;;;5011905;27;98511;-61
2023/09/16 04:01:14;;;;;;;6.15;5.50;;;;;;;;;;5013913;27;100315;-61
2023/09/16 04:03:41;;;;;;;7.88;5.28;;;;;;;;;;5012488;27;98432;-61
2023/09/16 04:06:07;;;;;;;7.03;5.40;;;;;;;;;;5011023;27;98750;-61
2023/09/16 04:08:34;;;;;;;5.22;4.72;;;;;;;;;;5010686;27;99589;-61
2023/09/16 04:11:08;;;;;;;5.97;5.38;;;;;;;;;;5010321;27;99279;-61
2023/09/16 04:13:34;;;;;;;7.30;5.32;;;;;;;;;;5014620;27;99886;-61
2023/09/16 04:16:01;;;;;;;5.55;4.95;;;;;;;;;;5029648;27;100643;-61
2023/09/16 04:18:27;;;;;;;8.98;5.60;;;;;;;;;;5016004;27;98685;-61
2023/09/16 04:20:55;;;;;;;10.63;4.85;;;;;;;;;;5014990;27;99192;-60
2023/09/16 04:23:22;;;;;;;8.23;4.53;;;;;;;;;;5014376;27;99416;-61
2023/09/16 04:25:55;;;;;;;5.57;4.97;;;;;;;;;;5011292;27;100207;-61
2023/09/16 04:28:22;;;;;;;7.88;5.82;;;;;;;;;;5011624;27;97977;-61
2023/09/16 04:30:49;;;;;;;7.70;5.57;;;;;;;;;;5011410;27;98628;-60
2023/09/16 04:33:16;;;;;;;10.43;5.78;;;;;;;;;;5010803;27;100534;-60
2023/09/16 04:35:44;;;;;;;5.75;5.10;;;;;;;;;;5009734;27;100222;-61
2023/09/16 04:38:11;;;;;;;7.28;5.38;;;;;;;;;;5010657;27;98500;-60
2023/09/16 04:40:38;;;;;;;5.55;4.85;;;;;;;;;;5015165;27;99561;-61
2023/09/16 04:43:05;;;;;;;6.80;5.88;;;;;;;;;;5010321;27;99438;-61
2023/09/16 04:45:32;;;;;;;12.88;5.40;;;;;;;;;;5021695;27;100427;-61
2023/09/16 04:47:58;;;;;;;8.35;5.20;;;;;;;;;;5022323;27;99542;-61
2023/09/16 04:50:25;;;;;;;6.20;5.53;;;;;;;;;;5019204;27;98604;-61
2023/09/16 04:52:51;;;;;;;17.10;5.75;;;;;;;;;;5012731;27;99153;-61
2023/09/16 04:55:18;;;;;;;9.40;6.20;;;;;;;;;;5010759;27;99525;-62
2023/09/16 04:57:44;;;;;;;8.55;5.68;;;;;;;;;;5010792;27;99046;-61
2023/09/16 05:00:11;;;;;;;6.53;5.28;;;;;;;;;;5009836;27;99447;-60
2023/09/16 05:02:37;;;;;;;9.30;5.20;;;;;;;;;;5009611;27;99557;-60
2023/09/16 05:05:04;;;;;;;8.30;5.80;;;;;;;;;;5013682;27;98544;-61
2023/09/16 05:07:30;;;;;;;9.80;5.22;;;;;;;;;;5010114;27;99469;-61
2023/09/16 05:09:57;;;;;;;6.65;5.00;;;;;;;;;;5010095;27;98845;-61
2023/09/16 05:12:24;;;;;;;7.22;4.88;;;;;;;;;;5010585;27;99323;-61
2023/09/16 05:14:50;;;;;;;9.32;5.32;;;;;;;;;;5009674;27;99513;-61
2023/09/16 05:17:17;;;;;;;6.40;5.25;;;;;;;;;;5013026;27;97953;-61
2023/09/16 05:19:44;;;;;;;6.97;5.15;;;;;;;;;;5010872;27;98830;-61
2023/09/16 05:22:10;;;;;;;8.48;5.15;;;;;;;;;;5014003;27;99585;-61
2023/09/16 05:24:36;;;;;;;7.93;5.40;;;;;;;;;;5013538;27;99320;-61
2023/09/16 05:27:03;;;;;;;8.90;5.22;;;;;;;;;;5012722;27;99862;-61
2023/09/16 05:29:29;;;;;;;7.22;5.47;;;;;;;;;;5010342;27;98619;-61
2023/09/16 05:31:59;;;;;;;13.30;5.38;;;;;;;;;;5009622;27;98986;-61
2023/09/16 05:34:25;;;;;;;7.53;5.10;;;;;;;;;;5022408;27;99468;-61
2023/09/16 05:36:51;;;;;;;9.07;5.05;;;;;;;;;;5022122;27;98887;-61
2023/09/16 05:39:18;;;;;;;5.63;5.00;;;;;;;;;;5009924;27;99553;-61
2023/09/16 05:41:44;;;;;;;7.40;4.78;;;;;;;;;;5009499;27;100288;-61
2023/09/16 05:44:10;;;;;;;6.40;5.05;;;;;;;;;;5016345;27;98494;-61
2023/09/16 05:46:37;;;;;;;7.55;5.63;;;;;;;;;;5013478;27;99725;-60
2023/09/16 05:49:07;;;;;;;12.48;5.80;;;;;;;;;;5011910;27;100582;-61
2023/09/16 05:51:34;;;;;;;10.85;5.50;;;;;;;;;;5011958;27;100137;-61
2023/09/16 05:54:00;;;;;;;7.10;5.65;;;;;;;;;;5017037;27;101976;-61
2023/09/16 05:56:27;;;;;;;6.43;5.35;;;;;;;;;;5009261;27;99248;-60
2023/09/16 05:58:53;;;;;;;8.13;5.68;;;;;;;;;;5009769;27;99143;-61
2023/09/16 06:01:20;;;;;;;7.72;5.75;;;;;;;;;;5016763;27;99487;-61
2023/09/16 06:03:46;;;;;;;9.57;5.82;;;;;;;;;;5009743;27;98706;-61
2023/09/16 06:06:13;;;;;;;7.35;5.95;;;;;;;;;;5014320;27;99087;-61
2023/09/16 06:08:39;;;;;;;15.38;5.72;;;;;;;;;;5011209;27;99484;-61
2023/09/16 06:11:05;;;;;;;10.13;6.10;;;;;;;;;;5011887;27;98671;-61
2023/09/16 06:13:32;;;;;;;8.82;5.47;;;;;;;;;;5017341;27;100258;-61
2023/09/16 06:15:58;;;;;;;7.13;5.60;;;;;;;;;;5013386;27;98525;-61
2023/09/16 06:18:25;;;;;;;9.27;5.85;;;;;;;;;;5012617;27;100175;-61
2023/09/16 06:20:51;;;;;;;8.10;5.72;;;;;;;;;;5016225;27;101180;-61
2023/09/16 06:23:18;;;;;;;7.70;5.93;;;;;;;;;;5009455;27;98609;-61
2023/09/16 06:25:44;;;;;;;8.25;5.53;;;;;;;;;;5009329;27;98984;-61
2023/09/16 06:28:11;;;;;;;6.90;6.00;;;;;;;;;;5012329;27;100512;-61
2023/09/16 06:30:37;;;;;;;9.27;5.88;;;;;;;;;;5013554;27;97847;-61
2023/09/16 06:33:04;;;;;;;12.43;6.72;;;;;;;;;;5012136;27;98520;-61
2023/09/16 06:35:30;;;;;;;11.23;6.72;;;;;;;;;;5012714;27;98512;-61
2023/09/16 06:37:57;;;;;;;11.15;6.68;;;;;;;;;;5012293;27;100124;-61
2023/09/16 06:40:23;;;;;;;8.63;6.00;;;;;;;;;;5008579;27;100057;-61
2023/09/16 06:42:49;;;;;;;9.75;6.35;;;;;;;;;;5015712;27;99705;-61
2023/09/16 06:45:16;;;;;;;11.07;6.55;;;;;;;;;;5010949;27;99201;-60
2023/09/16 06:47:42;;;;;;;8.30;6.32;;;;;;;;;;5012876;27;99378;-61
2023/09/16 06:50:09;;;;;;;18.88;6.13;;;;;;;;;;5009300;27;98444;-61
2023/09/16 06:52:36;;;;;;;9.57;6.70;;;;;;;;;;5009198;27;99180;-61
2023/09/16 06:55:02;;;;;;;6.80;5.88;;;;;;;;;;5015744;27;98772;-61
2023/09/16 06:57:29;;;;;;;8.63;6.63;;;;;;;;;;5013053;27;98768;-61
2023/09/16 07:00:13;;;;;;;9.48;6.50;;;;;;;;;;5016115;27;98775;-61
2023/09/16 07:02:39;;;;;;;9.35;6.75;;;;;;;;;;5016020;27;99287;-61
2023/09/16 07:05:06;;;;;;;10.70;6.65;;;;;;;;;;5011933;27;99801;-60
2023/09/16 07:07:32;;;;;;;9.73;6.85;;;;;;;;;;5011773;27;100914;-61
2023/09/16 07:09:59;;;;;;;13.05;6.13;;;;;;;;;;5020636;27;101198;-61
2023/09/16 07:12:25;;;;;;;11.32;7.45;;;;;;;;;;5012234;27;100270;-61
2023/09/16 07:14:52;;;;;;;13.85;7.88;;;;;;;;;;5014713;27;99738;-60
2023/09/16 07:17:18;;;;;;;13.63;8.95;;;;;;;;;;5015929;27;99153;-61
2023/09/16 07:19:48;;;;;;;16.02;10.10;;;;;;;;;;5011449;27;98769;-61
2023/09/16 07:22:14;;;;;;;23.75;10.48;;;;;;;;;;5014446;27;98516;-61
2023/09/16 07:24:40;;;;;;;14.05;11.18;;;;;;;;;;5011002;27;100465;-61
2023/09/16 07:27:07;;;;;;;19.98;10.50;;;;;;;;;;5014271;27;100271;-61
2023/09/16 07:29:34;;;;;;;19.77;11.20;;;;;;;;;;5014598;27;98960;-61
2023/09/16 07:32:00;;;;;;;16.92;10.07;;;;;;;;;;5011222;27;99247;-61
2023/09/16 07:34:27;;;;;;;14.45;11.18;;;;;;;;;;5014547;27;99454;-61
2023/09/16 07:36:53;;;;;;;15.20;11.07;;;;;;;;;;5014264;27;99014;-61
2023/09/16 07:39:19;;;;;;;17.25;12.18;;;;;;;;;;5014125;27;99487;-61
2023/09/16 07:41:46;;;;;;;16.40;10.63;;;;;;;;;;5011021;27;98496;-61
2023/09/16 07:44:12;;;;;;;22.33;12.15;;;;;;;;;;5011010;27;99284;-61
2023/09/16 07:46:39;;;;;;;19.00;11.18;;;;;;;;;;5010361;27;100402;-61
2023/09/16 07:49:05;;;;;;;19.27;11.80;;;;;;;;;;5009723;27;98915;-61
2023/09/16 07:51:32;;;;;;;15.43;12.35;;;;;;;;;;5013998;27;99444;-61
2023/09/16 07:53:58;;;;;;;12.55;10.98;;;;;;;;;;5010229;27;100498;-61
2023/09/16 07:56:25;;;;;;;15.73;11.25;;;;;;;;;;5010744;27;98661;-61
2023/09/16 07:58:51;;;;;;;14.82;11.35;;;;;;;;;;5018100;27;101162;-61
2023/09/16 08:01:18;;;;;;;15.50;12.07;;;;;;;;;;5015155;27;98502;-61
2023/09/16 08:03:44;;;;;;;18.98;14.20;;;;;;;;;;5010305;27;99547;-61
2023/09/16 08:06:11;;;;;;;25.02;13.38;;;;;;;;;;5013496;27;99251;-61
2023/09/16 08:08:38;;;;;;;17.83;11.85;;;;;;;;;;5010957;27;98553;-61
2023/09/16 08:11:04;;;;;;;13.73;10.32;;;;;;;;;;5009082;27;99907;-61
2023/09/16 08:13:30;;;;;;;22.25;12.98;;;;;;;;;;5014050;27;99700;-62
2023/09/16 08:15:57;;;;;;;22.85;11.23;;;;;;;;;;5013490;27;99345;-60
2023/09/16 08:18:23;;;;;;;17.05;13.02;;;;;;;;;;5010523;27;99922;-59
2023/09/16 08:20:50;;;;;;;19.90;11.82;;;;;;;;;;5012929;27;100573;-62
2023/09/16 08:23:16;;;;;;;24.90;14.30;;;;;;;;;;5009758;27;100772;-62
2023/09/16 08:25:45;;;;;;;20.77;12.80;;;;;;;;;;5014442;27;100462;-62
2023/09/16 08:28:11;;;;;;;15.88;12.18;;;;;;;;;;5009739;27;98676;-62
2023/09/16 08:30:37;;;;;;;22.27;15.30;;;;;;;;;;5009473;27;99602;-61
2023/09/16 08:33:04;;;;;;;22.42;13.02;;;;;;;;;;5009893;27;98696;-61
2023/09/16 08:35:31;;;;;;;23.48;15.77;;;;;;;;;;5009974;27;98998;-61
2023/09/16 08:38:00;;;;;;;16.17;14.02;;;;;;;;;;5013818;27;99555;-61
2023/09/16 08:40:29;;;;;;;22.08;14.60;;;;;;;;;;5008835;27;100221;-60
2023/09/16 08:43:16;;;;;;;15.80;12.23;;;;;;;;;;5013235;27;98529;-61
2023/09/16 08:45:49;;;;;;;17.98;11.93;;;;;;;;;;5008832;27;100674;-60
2023/09/16 08:48:18;;;;;;;19.27;13.77;;;;;;;;;;5010787;27;98515;-61
2023/09/16 08:50:46;;;;;;;21.08;12.18;;;;;;;;;;5015450;27;98543;-61
2023/09/16 08:53:15;;;;;;;19.58;16.17;;;;;;;;;;5011532;27;100520;-61
2023/09/16 08:55:42;;;;;;;13.88;11.80;;;;;;;;;;5009706;27;98620;-60
2023/09/16 08:58:09;;;;;;;20.85;12.00;;;;;;;;;;5009561;27;100351;-59
2023/09/16 09:00:36;;;;;;;16.25;12.23;;;;;;;;;;5009504;27;99763;-61
2023/09/16 09:03:03;;;;;;;23.38;12.45;;;;;;;;;;5013951;27;98529;-61
2023/09/16 09:05:31;;;;;;;13.18;10.77;;;;;;;;;;5012618;27;100421;-60
2023/09/16 09:07:58;;;;;;;16.42;10.20;;;;;;;;;;5009391;27;99083;-60
2023/09/16 09:10:25;;;;;;;21.00;10.63;;;;;;;;;;5009357;27;99197;-60
2023/09/16 09:12:52;;;;;;;15.93;10.50;;;;;;;;;;5011470;27;100486;-60
2023/09/16 09:15:19;;;;;;;14.68;10.77;;;;;;;;;;5010336;27;98540;-60
2023/09/16 09:17:54;;;;;;;17.10;11.00;;;;;;;;;;5011349;27;100034;-60
2023/09/16 09:20:22;;;;;;;14.27;11.02;;;;;;;;;;5011331;27;99800;-61
2023/09/16 09:22:50;;;;;;;14.38;10.80;;;;;;;;;;5010653;27;97790;-61
2023/09/16 09:25:23;;;;;;;17.08;10.60;;;;;;;;;;5012239;27;98461;-61
2023/09/16 09:27:50;;;;;;;18.77;10.63;;;;;;;;;;5008593;27;98620;-61
2023/09/16 09:30:21;;;;;;;14.20;10.02;;;;;;;;;;5008682;27;99664;-61
2023/09/16 09:32:47;;;;;;;15.30;10.18;;;;;;;;;;5008945;27;99485;-61
2023/09/16 09:35:14;;;;;;;13.88;9.60;;;;;;;;;;5008726;27;98879;-61
2023/09/16 09:37:40;;;;;;;18.08;9.88;;;;;;;;;;5013343;27;99147;-61
2023/09/16 09:40:11;;;;;;;15.85;9.70;;;;;;;;;;5009709;27;99611;-61
2023/09/16 09:42:40;;;;;;;15.40;9.63;;;;;;;;;;5009668;27;98763;-60
2023/09/16 09:45:09;;;;;;;20.30;10.65;;;;;;;;;;5009290;27;99409;-61
2023/09/16 09:47:36;;;;;;;16.13;9.02;;;;;;;;;;5017657;27;99198;-61
2023/09/16 09:50:03;;;;;;;20.52;9.98;;;;;;;;;;5010243;27;98502;-61
2023/09/16 09:52:30;;;;;;;17.35;9.70;;;;;;;;;;5012473;27;99572;-61
2023/09/16 09:54:57;;;;;;;16.30;9.93;;;;;;;;;;5008950;28;102999;-61
2023/09/16 09:57:24;;;;;;;14.07;9.18;;;;;;;;;;5009280;27;100355;-61
2023/09/16 09:59:51;;;;;;;15.85;9.52;;;;;;;;;;5008652;27;99515;-61
2023/09/16 10:02:22;;;;;;;13.40;8.50;;;;;;;;;;5008938;27;98526;-61
2023/09/16 10:04:48;;;;;;;18.50;8.70;;;;;;;;;;5009221;27;99224;-61
2023/09/16 10:07:15;;;;;;;15.00;8.23;;;;;;;;;;5008913;27;100596;-61
2023/09/16 10:09:43;;;;;;;9.25;7.80;;;;;;;;;;5012364;27;98589;-61
2023/09/16 10:12:10;;;;;;;16.17;8.00;;;;;;;;;;5009340;27;98915;-62
2023/09/16 10:14:36;;;;;;;12.98;8.30;;;;;;;;;;5008176;27;98464;-62
2023/09/16 10:17:03;;;;;;;13.18;8.02;;;;;;;;;;5025313;27;98987;-62
2023/09/16 10:19:30;;;;;;;16.23;8.25;;;;;;;;;;5009178;27;99935;-62
2023/09/16 10:21:57;;;;;;;11.38;7.80;;;;;;;;;;5017074;27;98696;-62
2023/09/16 10:24:23;;;;;;;13.57;7.82;;;;;;;;;;5009277;27;99233;-60
2023/09/16 10:26:50;;;;;;;11.10;8.05;;;;;;;;;;5008585;27;100500;-62
2023/09/16 10:29:17;;;;;;;13.23;7.18;;;;;;;;;;5008768;27;98609;-62
2023/09/16 10:31:45;;;;;;;13.45;7.65;;;;;;;;;;5012268;27;99236;-62
2023/09/16 10:34:12;;;;;;;8.20;7.20;;;;;;;;;;5008629;27;98530;-62
2023/09/16 10:36:39;;;;;;;7.70;6.40;;;;;;;;;;5012708;27;100477;-60
2023/09/16 10:39:05;;;;;;;13.80;6.40;;;;;;;;;;5009074;27;100429;-62
2023/09/16 10:41:33;;;;;;;14.07;6.72;;;;;;;;;;5008658;27;98737;-61
2023/09/16 10:44:01;;;;;;;8.50;5.88;;;;;;;;;;5008472;27;99219;-62
2023/09/16 10:46:28;;;;;;;14.57;5.63;;;;;;;;;;5008913;27;99511;-61
2023/09/16 10:48:55;;;;;;;14.50;6.30;;;;;;;;;;5013710;27;98568;-62
2023/09/16 10:51:23;;;;;;;10.25;5.60;;;;;;;;;;5009591;27;100391;-61
2023/09/16 10:53:53;;;;;;;11.80;5.97;;;;;;;;;;5010847;27;99438;-60
2023/09/16 10:56:25;;;;;;;12.32;5.60;;;;;;;;;;5008459;27;100441;-62
2023/09/16 10:58:55;;;;;;;19.10;6.35;;;;;;;;;;5008360;27;99544;-61
2023/09/16 11:01:30;;;;;;;9.63;6.32;;;;;;;;;;5008838;27;97849;-62
2023/09/16 11:04:00;;;;;;;9.23;5.78;;;;;;;;;;5013046;27;98896;-62
2023/09/16 11:06:27;;;;;;;12.80;5.53;;;;;;;;;;5012005;27;99652;-62
2023/09/16 11:08:53;;;;;;;5.47;4.50;;;;;;;;;;5015995;27;99278;-61
2023/09/16 11:11:20;;;;;;;6.90;4.53;;;;;;;;;;5008020;27;100976;-61
2023/09/16 11:13:47;;;;;;;8.93;4.95;;;;;;;;;;5010488;27;99658;-61
2023/09/16 11:16:14;;;;;;;6.57;4.10;;;;;;;;;;5013522;27;98694;-61
2023/09/16 11:18:42;;;;;;;7.38;4.47;;;;;;;;;;5007597;27;99444;-61
2023/09/16 11:21:11;;;;;;;7.90;4.72;;;;;;;;;;5008459;27;98566;-61
2023/09/16 11:23:37;;;;;;;11.23;5.18;;;;;;;;;;5009069;27;99127;-61
2023/09/16 11:26:04;;;;;;;7.85;4.57;;;;;;;;;;5008560;27;99783;-61
2023/09/16 11:28:31;;;;;;;7.22;3.92;;;;;;;;;;5007206;27;98558;-61
2023/09/16 11:30:59;;;;;;;7.93;4.13;;;;;;;;;;5008520;27;99219;-61
2023/09/16 11:33:25;;;;;;;8.63;4.15;;;;;;;;;;5006559;27;100279;-61
2023/09/16 11:36:07;;;;;;;6.55;3.88;;;;;;;;;;5011793;27;98874;-61
2023/09/16 11:38:34;;;;;;;7.43;3.33;;;;;;;;;;5015183;27;99137;-60
2023/09/16 11:41:09;;;;;;;5.25;3.30;;;;;;;;;;5008418;27;98571;-61
2023/09/16 11:43:36;;;;;;;9.40;3.28;;;;;;;;;;5011114;27;99489;-60
2023/09/16 11:46:03;;;;;;;7.60;3.60;;;;;;;;;;5012727;27;99968;-60
2023/09/16 11:48:36;;;;;;;8.20;3.40;;;;;;;;;;5012514;27;98529;-60
2023/09/16 11:51:13;;;;;;;8.05;3.47;;;;;;;;;;5013038;27;99164;-61
2023/09/16 11:53:39;;;;;;;4.95;2.70;;;;;;;;;;5011177;27;99465;-60
2023/09/16 11:56:06;;;;;;;7.70;3.00;;;;;;;;;;5010952;27;98990;-61
2023/09/16 11:58:32;;;;;;;3.75;2.72;;;;;;;;;;5017285;27;100094;-60
2023/09/16 12:01:01;;;;;;;4.35;2.65;;;;;;;;;;5011280;27;98537;-60
2023/09/16 12:03:27;;;;;;;7.18;2.70;;;;;;;;;;5010699;27;99116;-61
2023/09/16 12:05:55;;;;;;;5.13;2.63;;;;;;;;;;5012557;27;99624;-61
2023/09/16 12:08:23;;;;;;;9.43;2.78;;;;;;;;;;5013071;27;98673;-61
2023/09/16 12:10:51;;;;;;;5.70;2.90;;;;;;;;;;5023807;27;99165;-61
2023/09/16 12:13:31;;;;;;;7.38;2.97;;;;;;;;;;5014307;27;99609;-60
2023/09/16 12:15:58;;;;;;;4.05;3.05;;;;;;;;;;5013034;27;97806;-60
2023/09/16 12:18:24;;;;;;;4.43;4.07;;;;;;;;;;5013121;27;98715;-59
2023/09/16 12:20:52;;;;;;;70.05;64.22;;;;;;;;;;5013788;27;99625;-59
2023/09/16 12:23:18;;;;;;;129.90;119.95;;;;;;;;;;5008844;27;99492;-59
2023/09/16 12:25:45;;;;;;;117.10;108.22;;;;;;;;;;5009374;27;99484;-59
2023/09/16 12:28:22;;;;;;;91.65;83.65;;;;;;;;;;5009482;27;98880;-59
2023/09/16 12:30:52;;;;;;;80.47;73.85;;;;;;;;;;5009513;27;99372;-59
2023/09/16 12:33:19;;;;;;;86.15;78.75;;;;;;;;;;5008734;27;99617;-60
2023/09/16 12:35:46;;;;;;;115.88;106.22;;;;;;;;;;5010323;27;98580;-59
2023/09/16 12:38:16;;;;;;;144.52;132.73;;;;;;;;;;5009005;27;99517;-59
2023/09/16 12:40:48;;;;;;;189.70;173.65;;;;;;;;;;5009270;27;98815;-60
2023/09/16 12:43:14;;;;;;;227.95;208.45;;;;;;;;;;5011962;27;98847;-59
2023/09/16 12:45:41;;;;;;;232.98;214.35;;;;;;;;;;5008710;27;99296;-60
2023/09/16 12:48:09;;;;;;;208.07;190.65;;;;;;;;;;5014716;27;99474;-59
2023/09/16 12:50:37;;;;;;;251.13;228.88;;;;;;;;;;5021614;27;100243;-60
2023/09/16 12:53:03;;;;;;;183.15;167.93;;;;;;;;;;5008881;27;99560;-60
2023/09/16 12:55:30;;;;;;;183.35;167.13;;;;;;;;;;5007753;27;99000;-60
2023/09/16 12:57:57;;;;;;;232.60;212.60;;;;;;;;;;5012947;27;100588;-60
2023/09/16 13:00:25;;;;;;;320.25;291.67;;;;;;;;;;5012201;27;99724;-61
2023/09/16 13:02:52;;;;;;;388.17;354.13;;;;;;;;;;5013068;27;98735;-60
2023/09/16 13:05:20;;;;;;;426.40;390.17;;;;;;;;;;5016220;27;99324;-60
2023/09/16 13:07:48;;;;;;;387.33;352.23;;;;;;;;;;5009071;27;98486;-59
2023/09/16 13:10:15;;;;;;;389.30;355.10;;;;;;;;;;5008821;27;100402;-59
2023/09/16 13:12:45;;;;;;;362.50;328.17;;;;;;;;;;5011590;27;100230;-59
2023/09/16 13:15:17;;;;;;;321.65;294.10;;;;;;;;;;5009771;27;98807;-60
2023/09/16 13:17:45;;;;;;;412.25;375.63;;;;;;;;;;5013692;27;100345;-60
2023/09/16 13:20:14;;;;;;;406.67;372.35;;;;;;;;;;5008491;27;99652;-59
2023/09/16 13:22:41;;;;;;;486.92;442.60;;;;;;;;;;5011749;27;99973;-61
2023/09/16 13:25:26;;;;;;;563.45;514.63;;;;;;;;;;5016039;27;100436;-61
2023/09/16 13:27:53;;;;;;;506.88;459.83;;;;;;;;;;5018100;27;98670;-60
2023/09/16 13:30:20;;;;;;;405.55;371.25;;;;;;;;;;5014293;27;99951;-60
2023/09/16 13:32:51;;;;;;;345.65;315.60;;;;;;;;;;5012465;27;100470;-60
2023/09/16 13:35:18;;;;;;;361.45;330.80;;;;;;;;;;5016827;27;98824;-60
2023/09/16 13:37:45;;;;;;;321.58;295.40;;;;;;;;;;5011029;27;99285;-60
2023/09/16 13:40:15;;;;;;;355.75;324.13;;;;;;;;;;5013435;27;100521;-60
2023/09/16 13:42:42;;;;;;;433.65;396.13;;;;;;;;;;5009030;27;98648;-60
2023/09/16 13:45:08;;;;;;;462.30;421.75;;;;;;;;;;5007063;27;99754;-60
2023/09/16 13:47:35;;;;;;;367.08;334.20;;;;;;;;;;5017093;27;100909;-60
2023/09/16 13:50:02;;;;;;;392.98;357.75;;;;;;;;;;5012152;27;99461;-61
2023/09/16 13:52:28;;;;;;;381.35;348.55;;;;;;;;;;5012816;27;100940;-60
2023/09/16 13:54:54;;;;;;;421.40;384.17;;;;;;;;;;5007374;27;97804;-61
2023/09/16 13:57:21;;;;;;;333.00;303.83;;;;;;;;;;5008778;27;99358;-66
2023/09/16 13:59:47;;;;;;;332.52;305.00;;;;;;;;;;5011467;27;99506;-62
2023/09/16 14:02:14;;;;;;;348.83;319.67;;;;;;;;;;5006583;27;99823;-61
2023/09/16 14:04:40;;;;;;;413.38;376.58;;;;;;;;;;5012244;27;100184;-60
2023/09/16 14:07:07;;;;;;;453.42;415.17;;;;;;;;;;5011107;27;99497;-61
2023/09/16 14:09:33;;;;;;;476.92;435.35;;;;;;;;;;5012561;27;98751;-61
2023/09/16 14:12:00;;;;;;;585.45;533.45;;;;;;;;;;5009735;27;99713;-61
2023/09/16 14:14:26;;;;;;;619.30;565.20;;;;;;;;;;5004905;27;98623;-61
2023/09/16 14:16:52;;;;;;;620.10;562.97;;;;;;;;;;5010893;27;100342;-60
2023/09/16 14:19:19;;;;;;;616.38;559.67;;;;;;;;;;5009899;27;99335;-61
2023/09/16 14:21:46;;;;;;;527.92;478.75;;;;;;;;;;5011256;27;98771;-60
2023/09/16 14:24:12;;;;;;;561.30;508.60;;;;;;;;;;5007712;27;99253;-60
2023/09/16 14:26:39;;;;;;;564.17;512.05;;;;;;;;;;5006633;27;101252;-61